sensor_id;sensor_type;location;lat;lon;timestamp;P1;durP1;ratioP1;P2;durP2;ratioP2
22240;SDS011;11289;52.524;13.694;2023-07-30T00:00:57;8.20;;;5.20;;
22240;SDS011;11289;52.524;13.694;2023-07-30T00:03:23;6.88;;;5.72;;
22240;SDS011;11289;52.524;13.694;2023-07-30T00:05:53;8.13;;;5.38;;
22240;SDS011;11289;52.524;13.694;2023-07-30T00:08:20;9.50;;;5.45;;
22240;SDS011;11289;52.524;13.694;2023-07-30T00:10:46;9.15;;;6.10;;
22240;SDS011;11289;52.524;13.694;2023-07-30T00:16:08;7.60;;;6.00;;
22240;SDS011;11289;52.524;13.694;2023-07-30T00:18:34;8.68;;;6.30;;
22240;SDS011;11289;52.524;13.694;2023-07-30T00:21:06;9.18;;;5.85;;
22240;SDS011;11289;52.524;13.694;2023-07-30T00:23:32;8.10;;;5.68;;
22240;SDS011;11289;52.524;13.694;2023-07-30T00:25:58;6.78;;;5.30;;
22240;SDS011;11289;52.524;13.694;2023-07-30T00:28:24;7.78;;;6.45;;
22240;SDS011;11289;52.524;13.694;2023-07-30T00:30:50;9.07;;;6.72;;
22240;SDS011;11289;52.524;13.694;2023-07-30T00:33:16;7.72;;;5.85;;
22240;SDS011;11289;52.524;13.694;2023-07-30T00:35:44;10.95;;;6.28;;
22240;SDS011;11289;52.524;13.694;2023-07-30T00:38:10;7.70;;;6.05;;
22240;SDS011;11289;52.524;13.694;2023-07-30T00:40:40;8.13;;;6.15;;
22240;SDS011;11289;52.524;13.694;2023-07-30T00:43:09;5.85;;;5.28;;
22240;SDS011;11289;52.524;13.694;2023-07-30T00:45:36;7.97;;;5.65;;
22240;SDS011;11289;52.524;13.694;2023-07-30T00:48:05;7.22;;;5.05;;
22240;SDS011;11289;52.524;13.694;2023-07-30T00:50:31;12.85;;;6.97;;
22240;SDS011;11289;52.524;13.694;2023-07-30T00:52:58;9.05;;;6.30;;
22240;SDS011;11289;52.524;13.694;2023-07-30T00:55:25;6.40;;;5.35;;
22240;SDS011;11289;52.524;13.694;2023-07-30T00:57:51;7.35;;;5.95;;
22240;SDS011;11289;52.524;13.694;2023-07-30T01:00:17;6.22;;;5.63;;
22240;SDS011;11289;52.524;13.694;2023-07-30T01:02:44;6.10;;;5.45;;
22240;SDS011;11289;52.524;13.694;2023-07-30T01:05:10;6.85;;;5.82;;
22240;SDS011;11289;52.524;13.694;2023-07-30T01:07:36;8.50;;;6.15;;
22240;SDS011;11289;52.524;13.694;2023-07-30T01:10:02;6.72;;;5.82;;
22240;SDS011;11289;52.524;13.694;2023-07-30T01:12:29;8.40;;;6.15;;
22240;SDS011;11289;52.524;13.694;2023-07-30T01:14:57;8.63;;;5.00;;
22240;SDS011;11289;52.524;13.694;2023-07-30T01:17:24;6.30;;;5.57;;
22240;SDS011;11289;52.524;13.694;2023-07-30T01:19:52;7.57;;;5.50;;
22240;SDS011;11289;52.524;13.694;2023-07-30T01:22:20;8.32;;;5.63;;
22240;SDS011;11289;52.524;13.694;2023-07-30T01:24:47;8.27;;;5.70;;
22240;SDS011;11289;52.524;13.694;2023-07-30T01:27:16;7.90;;;6.07;;
22240;SDS011;11289;52.524;13.694;2023-07-30T01:29:48;6.28;;;5.40;;
22240;SDS011;11289;52.524;13.694;2023-07-30T01:32:24;6.45;;;5.10;;
22240;SDS011;11289;52.524;13.694;2023-07-30T01:34:54;9.65;;;5.47;;
22240;SDS011;11289;52.524;13.694;2023-07-30T01:37:21;5.97;;;5.38;;
22240;SDS011;11289;52.524;13.694;2023-07-30T01:39:48;5.30;;;4.80;;
22240;SDS011;11289;52.524;13.694;2023-07-30T01:42:15;9.13;;;6.45;;
22240;SDS011;11289;52.524;13.694;2023-07-30T01:44:41;8.05;;;5.93;;
22240;SDS011;11289;52.524;13.694;2023-07-30T01:47:07;9.82;;;6.43;;
22240;SDS011;11289;52.524;13.694;2023-07-30T01:49:33;7.07;;;5.90;;
22240;SDS011;11289;52.524;13.694;2023-07-30T01:51:59;6.35;;;5.55;;
22240;SDS011;11289;52.524;13.694;2023-07-30T01:54:25;11.55;;;5.53;;
22240;SDS011;11289;52.524;13.694;2023-07-30T01:56:52;6.93;;;5.78;;
22240;SDS011;11289;52.524;13.694;2023-07-30T01:59:18;6.43;;;5.82;;
22240;SDS011;11289;52.524;13.694;2023-07-30T02:01:44;8.02;;;5.78;;
22240;SDS011;11289;52.524;13.694;2023-07-30T02:04:10;6.60;;;5.72;;
22240;SDS011;11289;52.524;13.694;2023-07-30T02:06:37;9.70;;;6.05;;
22240;SDS011;11289;52.524;13.694;2023-07-30T02:09:03;7.22;;;6.53;;
22240;SDS011;11289;52.524;13.694;2023-07-30T02:11:31;8.77;;;5.95;;
22240;SDS011;11289;52.524;13.694;2023-07-30T02:13:57;9.80;;;6.20;;
22240;SDS011;11289;52.524;13.694;2023-07-30T02:16:41;6.70;;;5.95;;
22240;SDS011;11289;52.524;13.694;2023-07-30T02:19:07;7.57;;;5.78;;
22240;SDS011;11289;52.524;13.694;2023-07-30T02:21:33;7.28;;;4.97;;
22240;SDS011;11289;52.524;13.694;2023-07-30T02:24:01;6.43;;;5.32;;
22240;SDS011;11289;52.524;13.694;2023-07-30T02:26:28;7.03;;;5.68;;
22240;SDS011;11289;52.524;13.694;2023-07-30T02:28:54;7.65;;;5.68;;
22240;SDS011;11289;52.524;13.694;2023-07-30T02:31:20;8.00;;;6.15;;
22240;SDS011;11289;52.524;13.694;2023-07-30T02:33:46;6.45;;;5.35;;
22240;SDS011;11289;52.524;13.694;2023-07-30T02:36:12;5.70;;;4.60;;
22240;SDS011;11289;52.524;13.694;2023-07-30T02:38:38;7.65;;;6.43;;
22240;SDS011;11289;52.524;13.694;2023-07-30T02:41:04;8.70;;;5.18;;
22240;SDS011;11289;52.524;13.694;2023-07-30T02:43:30;9.90;;;5.40;;
22240;SDS011;11289;52.524;13.694;2023-07-30T02:45:56;6.80;;;5.57;;
22240;SDS011;11289;52.524;13.694;2023-07-30T02:48:22;6.25;;;5.65;;
22240;SDS011;11289;52.524;13.694;2023-07-30T02:51:01;6.63;;;5.28;;
22240;SDS011;11289;52.524;13.694;2023-07-30T02:53:27;6.15;;;5.53;;
22240;SDS011;11289;52.524;13.694;2023-07-30T02:55:53;6.13;;;5.53;;
22240;SDS011;11289;52.524;13.694;2023-07-30T02:58:19;6.65;;;5.45;;
22240;SDS011;11289;52.524;13.694;2023-07-30T03:00:45;6.55;;;5.57;;
22240;SDS011;11289;52.524;13.694;2023-07-30T03:03:11;8.55;;;5.43;;
22240;SDS011;11289;52.524;13.694;2023-07-30T03:05:39;6.22;;;5.20;;
22240;SDS011;11289;52.524;13.694;2023-07-30T03:08:07;6.22;;;5.28;;
22240;SDS011;11289;52.524;13.694;2023-07-30T03:10:36;6.45;;;5.22;;
22240;SDS011;11289;52.524;13.694;2023-07-30T03:13:02;5.82;;;4.72;;
22240;SDS011;11289;52.524;13.694;2023-07-30T03:15:29;6.35;;;4.78;;
22240;SDS011;11289;52.524;13.694;2023-07-30T03:17:55;6.13;;;4.47;;
22240;SDS011;11289;52.524;13.694;2023-07-30T03:23:37;7.22;;;5.13;;
22240;SDS011;11289;52.524;13.694;2023-07-30T03:26:03;6.00;;;4.40;;
22240;SDS011;11289;52.524;13.694;2023-07-30T03:28:29;7.93;;;5.07;;
22240;SDS011;11289;52.524;13.694;2023-07-30T03:30:55;6.22;;;5.25;;
22240;SDS011;11289;52.524;13.694;2023-07-30T03:33:21;6.65;;;5.10;;
22240;SDS011;11289;52.524;13.694;2023-07-30T03:35:47;5.72;;;4.72;;
22240;SDS011;11289;52.524;13.694;2023-07-30T03:38:14;6.88;;;5.00;;
22240;SDS011;11289;52.524;13.694;2023-07-30T03:40:40;5.72;;;4.57;;
22240;SDS011;11289;52.524;13.694;2023-07-30T03:43:06;6.97;;;5.70;;
22240;SDS011;11289;52.524;13.694;2023-07-30T03:45:32;5.97;;;4.90;;
22240;SDS011;11289;52.524;13.694;2023-07-30T03:48:00;5.20;;;4.55;;
22240;SDS011;11289;52.524;13.694;2023-07-30T03:50:26;5.25;;;4.75;;
22240;SDS011;11289;52.524;13.694;2023-07-30T03:52:58;6.22;;;5.18;;
22240;SDS011;11289;52.524;13.694;2023-07-30T03:55:24;6.75;;;5.95;;
22240;SDS011;11289;52.524;13.694;2023-07-30T03:57:50;5.93;;;5.25;;
22240;SDS011;11289;52.524;13.694;2023-07-30T04:00:16;6.10;;;5.45;;
22240;SDS011;11289;52.524;13.694;2023-07-30T04:02:42;9.05;;;5.13;;
22240;SDS011;11289;52.524;13.694;2023-07-30T04:05:08;6.38;;;5.78;;
22240;SDS011;11289;52.524;13.694;2023-07-30T04:07:34;7.93;;;6.18;;
22240;SDS011;11289;52.524;13.694;2023-07-30T04:10:00;6.82;;;5.57;;
22240;SDS011;11289;52.524;13.694;2023-07-30T04:12:26;8.65;;;5.72;;
22240;SDS011;11289;52.524;13.694;2023-07-30T04:17:27;7.68;;;6.05;;
22240;SDS011;11289;52.524;13.694;2023-07-30T04:19:56;7.05;;;6.25;;
22240;SDS011;11289;52.524;13.694;2023-07-30T04:22:22;7.03;;;6.13;;
22240;SDS011;11289;52.524;13.694;2023-07-30T04:24:48;6.38;;;5.78;;
22240;SDS011;11289;52.524;13.694;2023-07-30T04:27:13;6.38;;;5.78;;
22240;SDS011;11289;52.524;13.694;2023-07-30T04:29:39;9.15;;;6.05;;
22240;SDS011;11289;52.524;13.694;2023-07-30T04:32:06;10.98;;;6.88;;
22240;SDS011;11289;52.524;13.694;2023-07-30T04:34:32;9.23;;;7.28;;
22240;SDS011;11289;52.524;13.694;2023-07-30T04:37:06;9.38;;;7.22;;
22240;SDS011;11289;52.524;13.694;2023-07-30T04:39:34;10.25;;;6.40;;
22240;SDS011;11289;52.524;13.694;2023-07-30T04:42:01;7.55;;;6.78;;
22240;SDS011;11289;52.524;13.694;2023-07-30T04:44:27;7.55;;;6.78;;
22240;SDS011;11289;52.524;13.694;2023-07-30T04:46:53;7.50;;;6.30;;
22240;SDS011;11289;52.524;13.694;2023-07-30T04:49:22;9.77;;;7.85;;
22240;SDS011;11289;52.524;13.694;2023-07-30T04:51:49;7.65;;;6.95;;
22240;SDS011;11289;52.524;13.694;2023-07-30T04:54:15;8.52;;;6.60;;
22240;SDS011;11289;52.524;13.694;2023-07-30T04:56:41;8.43;;;7.10;;
22240;SDS011;11289;52.524;13.694;2023-07-30T04:59:07;8.40;;;7.22;;
22240;SDS011;11289;52.524;13.694;2023-07-30T05:01:33;9.32;;;7.43;;
22240;SDS011;11289;52.524;13.694;2023-07-30T05:03:59;8.52;;;7.72;;
22240;SDS011;11289;52.524;13.694;2023-07-30T05:06:25;8.45;;;7.65;;
22240;SDS011;11289;52.524;13.694;2023-07-30T05:08:51;9.07;;;7.97;;
22240;SDS011;11289;52.524;13.694;2023-07-30T05:11:17;9.95;;;8.73;;
22240;SDS011;11289;52.524;13.694;2023-07-30T05:13:43;9.20;;;7.93;;
22240;SDS011;11289;52.524;13.694;2023-07-30T05:16:09;7.95;;;7.22;;
22240;SDS011;11289;52.524;13.694;2023-07-30T05:18:35;9.35;;;8.43;;
22240;SDS011;11289;52.524;13.694;2023-07-30T05:21:01;8.35;;;7.55;;
22240;SDS011;11289;52.524;13.694;2023-07-30T05:23:27;10.35;;;8.30;;
22240;SDS011;11289;52.524;13.694;2023-07-30T05:25:53;8.98;;;7.47;;
22240;SDS011;11289;52.524;13.694;2023-07-30T05:28:22;9.48;;;8.57;;
22240;SDS011;11289;52.524;13.694;2023-07-30T05:30:48;8.82;;;8.02;;
22240;SDS011;11289;52.524;13.694;2023-07-30T05:33:17;10.18;;;8.55;;
22240;SDS011;11289;52.524;13.694;2023-07-30T05:35:43;9.15;;;8.32;;
22240;SDS011;11289;52.524;13.694;2023-07-30T05:38:11;8.75;;;7.95;;
22240;SDS011;11289;52.524;13.694;2023-07-30T05:40:37;11.68;;;7.85;;
22240;SDS011;11289;52.524;13.694;2023-07-30T05:43:03;9.18;;;8.38;;
22240;SDS011;11289;52.524;13.694;2023-07-30T05:45:31;13.13;;;7.90;;
22240;SDS011;11289;52.524;13.694;2023-07-30T05:47:58;10.55;;;8.95;;
22240;SDS011;11289;52.524;13.694;2023-07-30T05:50:25;10.10;;;9.10;;
22240;SDS011;11289;52.524;13.694;2023-07-30T05:55:48;10.40;;;7.85;;
22240;SDS011;11289;52.524;13.694;2023-07-30T05:58:14;8.13;;;7.25;;
22240;SDS011;11289;52.524;13.694;2023-07-30T06:00:40;9.18;;;8.13;;
22240;SDS011;11289;52.524;13.694;2023-07-30T06:03:06;8.88;;;8.07;;
22240;SDS011;11289;52.524;13.694;2023-07-30T06:05:38;8.82;;;8.02;;
22240;SDS011;11289;52.524;13.694;2023-07-30T06:10:56;8.45;;;7.18;;
22240;SDS011;11289;52.524;13.694;2023-07-30T06:13:26;6.60;;;6.00;;
22240;SDS011;11289;52.524;13.694;2023-07-30T06:15:52;9.13;;;6.68;;
22240;SDS011;11289;52.524;13.694;2023-07-30T06:18:18;8.48;;;6.53;;
22240;SDS011;11289;52.524;13.694;2023-07-30T06:20:44;6.22;;;5.65;;
22240;SDS011;11289;52.524;13.694;2023-07-30T06:23:10;10.80;;;5.85;;
22240;SDS011;11289;52.524;13.694;2023-07-30T06:25:36;5.82;;;5.32;;
22240;SDS011;11289;52.524;13.694;2023-07-30T06:28:02;6.18;;;5.63;;
22240;SDS011;11289;52.524;13.694;2023-07-30T06:30:28;5.20;;;4.70;;
22240;SDS011;11289;52.524;13.694;2023-07-30T06:32:54;5.97;;;4.38;;
22240;SDS011;11289;52.524;13.694;2023-07-30T06:35:20;4.82;;;4.32;;
22240;SDS011;11289;52.524;13.694;2023-07-30T06:37:48;5.00;;;4.50;;
22240;SDS011;11289;52.524;13.694;2023-07-30T06:40:13;7.00;;;6.30;;
22240;SDS011;11289;52.524;13.694;2023-07-30T06:42:39;18.77;;;16.33;;
22240;SDS011;11289;52.524;13.694;2023-07-30T06:45:06;6.35;;;5.63;;
22240;SDS011;11289;52.524;13.694;2023-07-30T06:47:33;4.32;;;3.92;;
22240;SDS011;11289;52.524;13.694;2023-07-30T06:50:01;5.93;;;4.63;;
22240;SDS011;11289;52.524;13.694;2023-07-30T06:52:35;6.35;;;4.63;;
22240;SDS011;11289;52.524;13.694;2023-07-30T06:57:31;4.38;;;3.90;;
22240;SDS011;11289;52.524;13.694;2023-07-30T07:05:33;15.65;;;13.32;;
22240;SDS011;11289;52.524;13.694;2023-07-30T07:08:01;11.57;;;10.07;;
22240;SDS011;11289;52.524;13.694;2023-07-30T07:10:35;8.02;;;6.57;;
22240;SDS011;11289;52.524;13.694;2023-07-30T07:13:08;4.45;;;4.00;;
22240;SDS011;11289;52.524;13.694;2023-07-30T07:15:46;5.78;;;3.42;;
22240;SDS011;11289;52.524;13.694;2023-07-30T07:23:37;4.47;;;3.53;;
22240;SDS011;11289;52.524;13.694;2023-07-30T07:26:04;3.83;;;3.53;;
22240;SDS011;11289;52.524;13.694;2023-07-30T07:28:37;8.48;;;3.75;;
22240;SDS011;11289;52.524;13.694;2023-07-30T07:31:34;3.80;;;2.95;;
22240;SDS011;11289;52.524;13.694;2023-07-30T07:34:46;9.65;;;8.02;;
22240;SDS011;11289;52.524;13.694;2023-07-30T07:37:21;6.93;;;6.07;;
22240;SDS011;11289;52.524;13.694;2023-07-30T07:39:55;3.97;;;3.60;;
22240;SDS011;11289;52.524;13.694;2023-07-30T07:42:21;4.38;;;2.80;;
22240;SDS011;11289;52.524;13.694;2023-07-30T07:44:47;3.47;;;3.15;;
22240;SDS011;11289;52.524;13.694;2023-07-30T07:47:15;3.10;;;2.85;;
22240;SDS011;11289;52.524;13.694;2023-07-30T07:49:41;3.95;;;3.00;;
22240;SDS011;11289;52.524;13.694;2023-07-30T07:54:37;8.70;;;6.07;;
22240;SDS011;11289;52.524;13.694;2023-07-30T07:57:03;3.90;;;3.05;;
22240;SDS011;11289;52.524;13.694;2023-07-30T07:59:33;3.03;;;2.58;;
22240;SDS011;11289;52.524;13.694;2023-07-30T08:01:59;3.40;;;2.72;;
22240;SDS011;11289;52.524;13.694;2023-07-30T08:04:27;3.63;;;2.60;;
22240;SDS011;11289;52.524;13.694;2023-07-30T08:06:52;3.50;;;2.92;;
22240;SDS011;11289;52.524;13.694;2023-07-30T08:09:18;3.55;;;2.28;;
22240;SDS011;11289;52.524;13.694;2023-07-30T08:11:45;3.38;;;2.47;;
22240;SDS011;11289;52.524;13.694;2023-07-30T08:14:12;4.22;;;2.40;;
22240;SDS011;11289;52.524;13.694;2023-07-30T08:16:38;5.13;;;2.50;;
22240;SDS011;11289;52.524;13.694;2023-07-30T08:19:03;3.85;;;2.90;;
22240;SDS011;11289;52.524;13.694;2023-07-30T08:21:30;4.90;;;2.63;;
22240;SDS011;11289;52.524;13.694;2023-07-30T08:23:55;3.47;;;3.10;;
22240;SDS011;11289;52.524;13.694;2023-07-30T08:26:21;2.88;;;2.40;;
22240;SDS011;11289;52.524;13.694;2023-07-30T08:28:47;4.93;;;2.97;;
22240;SDS011;11289;52.524;13.694;2023-07-30T08:31:14;4.50;;;2.95;;
22240;SDS011;11289;52.524;13.694;2023-07-30T08:33:40;4.70;;;2.50;;
22240;SDS011;11289;52.524;13.694;2023-07-30T08:36:06;5.28;;;3.15;;
22240;SDS011;11289;52.524;13.694;2023-07-30T08:38:34;4.40;;;2.75;;
22240;SDS011;11289;52.524;13.694;2023-07-30T08:41:00;3.40;;;3.10;;
22240;SDS011;11289;52.524;13.694;2023-07-30T08:43:26;9.20;;;7.20;;
22240;SDS011;11289;52.524;13.694;2023-07-30T08:45:54;7.38;;;6.53;;
22240;SDS011;11289;52.524;13.694;2023-07-30T08:48:20;5.07;;;3.35;;
22240;SDS011;11289;52.524;13.694;2023-07-30T08:50:46;3.92;;;2.70;;
22240;SDS011;11289;52.524;13.694;2023-07-30T08:53:15;7.07;;;5.97;;
22240;SDS011;11289;52.524;13.694;2023-07-30T08:55:41;8.82;;;7.35;;
22240;SDS011;11289;52.524;13.694;2023-07-30T08:58:07;6.93;;;6.22;;
22240;SDS011;11289;52.524;13.694;2023-07-30T09:00:36;4.22;;;2.75;;
22240;SDS011;11289;52.524;13.694;2023-07-30T09:03:04;3.42;;;2.75;;
22240;SDS011;11289;52.524;13.694;2023-07-30T09:05:30;3.95;;;2.78;;
22240;SDS011;11289;52.524;13.694;2023-07-30T09:07:57;4.80;;;2.72;;
22240;SDS011;11289;52.524;13.694;2023-07-30T09:10:23;4.20;;;2.30;;
22240;SDS011;11289;52.524;13.694;2023-07-30T09:12:55;3.72;;;3.25;;
22240;SDS011;11289;52.524;13.694;2023-07-30T09:15:31;7.72;;;5.93;;
22240;SDS011;11289;52.524;13.694;2023-07-30T09:17:59;4.13;;;2.65;;
22240;SDS011;11289;52.524;13.694;2023-07-30T09:20:26;6.13;;;2.33;;
22240;SDS011;11289;52.524;13.694;2023-07-30T09:28:32;3.20;;;2.05;;
22240;SDS011;11289;52.524;13.694;2023-07-30T09:31:02;2.13;;;1.80;;
22240;SDS011;11289;52.524;13.694;2023-07-30T09:33:32;3.33;;;2.30;;
22240;SDS011;11289;52.524;13.694;2023-07-30T09:36:07;3.70;;;1.98;;
22240;SDS011;11289;52.524;13.694;2023-07-30T09:38:41;3.20;;;2.08;;
22240;SDS011;11289;52.524;13.694;2023-07-30T09:41:08;3.25;;;1.80;;
22240;SDS011;11289;52.524;13.694;2023-07-30T09:43:35;2.83;;;1.65;;
22240;SDS011;11289;52.524;13.694;2023-07-30T09:46:05;4.85;;;2.15;;
22240;SDS011;11289;52.524;13.694;2023-07-30T09:48:32;3.53;;;1.77;;
22240;SDS011;11289;52.524;13.694;2023-07-30T09:51:00;3.83;;;1.77;;
22240;SDS011;11289;52.524;13.694;2023-07-30T09:53:33;5.00;;;3.88;;
22240;SDS011;11289;52.524;13.694;2023-07-30T09:56:03;3.50;;;2.28;;
22240;SDS011;11289;52.524;13.694;2023-07-30T09:58:30;2.72;;;1.98;;
22240;SDS011;11289;52.524;13.694;2023-07-30T10:00:57;3.30;;;1.70;;
22240;SDS011;11289;52.524;13.694;2023-07-30T10:03:25;4.82;;;1.90;;
22240;SDS011;11289;52.524;13.694;2023-07-30T10:05:54;4.70;;;1.95;;
22240;SDS011;11289;52.524;13.694;2023-07-30T10:08:26;2.47;;;1.60;;
22240;SDS011;11289;52.524;13.694;2023-07-30T10:10:57;3.55;;;1.77;;
22240;SDS011;11289;52.524;13.694;2023-07-30T10:13:27;2.50;;;1.35;;
22240;SDS011;11289;52.524;13.694;2023-07-30T10:15:54;2.38;;;1.75;;
22240;SDS011;11289;52.524;13.694;2023-07-30T10:18:23;3.80;;;2.08;;
22240;SDS011;11289;52.524;13.694;2023-07-30T10:20:54;3.83;;;1.63;;
22240;SDS011;11289;52.524;13.694;2023-07-30T10:23:23;2.38;;;1.30;;
22240;SDS011;11289;52.524;13.694;2023-07-30T10:25:53;2.97;;;1.40;;
22240;SDS011;11289;52.524;13.694;2023-07-30T10:30:56;2.42;;;1.20;;
22240;SDS011;11289;52.524;13.694;2023-07-30T10:33:27;4.22;;;1.25;;
22240;SDS011;11289;52.524;13.694;2023-07-30T10:36:10;2.70;;;1.25;;
22240;SDS011;11289;52.524;13.694;2023-07-30T10:38:36;2.35;;;1.40;;
22240;SDS011;11289;52.524;13.694;2023-07-30T10:41:15;2.38;;;1.30;;
22240;SDS011;11289;52.524;13.694;2023-07-30T10:43:45;2.60;;;1.20;;
22240;SDS011;11289;52.524;13.694;2023-07-30T11:04:21;3.28;;;2.08;;
22240;SDS011;11289;52.524;13.694;2023-07-30T11:18:43;5.50;;;1.50;;
22240;SDS011;11289;52.524;13.694;2023-07-30T11:21:18;2.65;;;1.15;;
22240;SDS011;11289;52.524;13.694;2023-07-30T11:23:45;2.28;;;1.15;;
22240;SDS011;11289;52.524;13.694;2023-07-30T11:26:16;4.45;;;1.20;;
22240;SDS011;11289;52.524;13.694;2023-07-30T11:28:48;2.85;;;1.10;;
22240;SDS011;11289;52.524;13.694;2023-07-30T11:31:16;3.47;;;1.40;;
22240;SDS011;11289;52.524;13.694;2023-07-30T11:33:45;4.45;;;3.10;;
22240;SDS011;11289;52.524;13.694;2023-07-30T11:36:21;8.70;;;4.10;;
22240;SDS011;11289;52.524;13.694;2023-07-30T11:38:48;7.32;;;4.93;;
22240;SDS011;11289;52.524;13.694;2023-07-30T11:41:18;2.80;;;1.40;;
22240;SDS011;11289;52.524;13.694;2023-07-30T11:43:45;2.25;;;1.10;;
22240;SDS011;11289;52.524;13.694;2023-07-30T11:46:19;3.33;;;1.13;;
22240;SDS011;11289;52.524;13.694;2023-07-30T11:48:53;2.80;;;1.45;;
22240;SDS011;11289;52.524;13.694;2023-07-30T11:51:40;4.22;;;1.40;;
22240;SDS011;11289;52.524;13.694;2023-07-30T11:54:07;3.42;;;0.90;;
22240;SDS011;11289;52.524;13.694;2023-07-30T11:56:33;2.70;;;1.00;;
22240;SDS011;11289;52.524;13.694;2023-07-30T11:59:00;3.88;;;1.27;;
22240;SDS011;11289;52.524;13.694;2023-07-30T12:01:32;3.45;;;1.40;;
22240;SDS011;11289;52.524;13.694;2023-07-30T12:04:08;2.17;;;1.10;;
22240;SDS011;11289;52.524;13.694;2023-07-30T12:06:39;4.03;;;1.23;;
22240;SDS011;11289;52.524;13.694;2023-07-30T12:12:02;5.20;;;1.40;;
22240;SDS011;11289;52.524;13.694;2023-07-30T12:17:12;4.90;;;1.10;;
22240;SDS011;11289;52.524;13.694;2023-07-30T12:19:38;4.32;;;1.30;;
22240;SDS011;11289;52.524;13.694;2023-07-30T12:22:06;13.80;;;8.65;;
22240;SDS011;11289;52.524;13.694;2023-07-30T12:24:31;4.15;;;2.08;;
22240;SDS011;11289;52.524;13.694;2023-07-30T12:26:57;6.00;;;2.50;;
22240;SDS011;11289;52.524;13.694;2023-07-30T12:29:24;2.95;;;1.20;;
22240;SDS011;11289;52.524;13.694;2023-07-30T12:31:50;5.22;;;1.73;;
22240;SDS011;11289;52.524;13.694;2023-07-30T12:34:19;2.95;;;0.98;;
22240;SDS011;11289;52.524;13.694;2023-07-30T12:36:45;2.38;;;1.27;;
22240;SDS011;11289;52.524;13.694;2023-07-30T12:39:11;4.88;;;1.20;;
22240;SDS011;11289;52.524;13.694;2023-07-30T12:41:38;4.60;;;1.20;;
22240;SDS011;11289;52.524;13.694;2023-07-30T12:44:04;3.97;;;1.73;;
22240;SDS011;11289;52.524;13.694;2023-07-30T12:46:30;4.18;;;1.20;;
22240;SDS011;11289;52.524;13.694;2023-07-30T12:48:59;3.58;;;1.15;;
22240;SDS011;11289;52.524;13.694;2023-07-30T12:51:30;4.57;;;1.75;;
22240;SDS011;11289;52.524;13.694;2023-07-30T12:53:56;4.35;;;1.33;;
22240;SDS011;11289;52.524;13.694;2023-07-30T12:56:28;5.20;;;2.15;;
22240;SDS011;11289;52.524;13.694;2023-07-30T12:58:54;4.85;;;1.20;;
22240;SDS011;11289;52.524;13.694;2023-07-30T13:01:20;2.88;;;1.15;;
22240;SDS011;11289;52.524;13.694;2023-07-30T13:03:46;2.40;;;1.38;;
22240;SDS011;11289;52.524;13.694;2023-07-30T13:06:14;7.65;;;4.78;;
22240;SDS011;11289;52.524;13.694;2023-07-30T13:08:40;8.40;;;1.90;;
22240;SDS011;11289;52.524;13.694;2023-07-30T13:11:06;4.00;;;1.40;;
22240;SDS011;11289;52.524;13.694;2023-07-30T13:13:32;3.53;;;1.25;;
22240;SDS011;11289;52.524;13.694;2023-07-30T13:15:58;3.65;;;1.27;;
22240;SDS011;11289;52.524;13.694;2023-07-30T13:18:27;6.68;;;1.42;;
22240;SDS011;11289;52.524;13.694;2023-07-30T13:20:53;4.25;;;1.40;;
22240;SDS011;11289;52.524;13.694;2023-07-30T13:23:19;3.45;;;1.33;;
22240;SDS011;11289;52.524;13.694;2023-07-30T13:25:45;2.95;;;1.65;;
22240;SDS011;11289;52.524;13.694;2023-07-30T13:28:11;3.03;;;1.48;;
22240;SDS011;11289;52.524;13.694;2023-07-30T13:30:37;3.33;;;1.65;;
22240;SDS011;11289;52.524;13.694;2023-07-30T13:33:03;4.43;;;1.30;;
22240;SDS011;11289;52.524;13.694;2023-07-30T13:35:29;4.45;;;2.13;;
22240;SDS011;11289;52.524;13.694;2023-07-30T13:37:55;4.28;;;1.48;;
22240;SDS011;11289;52.524;13.694;2023-07-30T13:40:21;5.15;;;1.90;;
22240;SDS011;11289;52.524;13.694;2023-07-30T13:42:47;5.47;;;2.47;;
22240;SDS011;11289;52.524;13.694;2023-07-30T13:45:13;5.15;;;2.25;;
22240;SDS011;11289;52.524;13.694;2023-07-30T13:47:39;2.78;;;1.42;;
22240;SDS011;11289;52.524;13.694;2023-07-30T13:50:07;3.75;;;1.63;;
22240;SDS011;11289;52.524;13.694;2023-07-30T13:52:33;3.42;;;1.60;;
22240;SDS011;11289;52.524;13.694;2023-07-30T13:54:59;3.53;;;1.45;;
22240;SDS011;11289;52.524;13.694;2023-07-30T13:57:25;3.15;;;1.35;;
22240;SDS011;11289;52.524;13.694;2023-07-30T13:59:52;2.67;;;1.25;;
22240;SDS011;11289;52.524;13.694;2023-07-30T14:02:19;1.98;;;1.45;;
22240;SDS011;11289;52.524;13.694;2023-07-30T14:04:45;5.20;;;1.60;;
22240;SDS011;11289;52.524;13.694;2023-07-30T14:07:11;4.38;;;1.52;;
22240;SDS011;11289;52.524;13.694;2023-07-30T14:09:37;3.47;;;1.55;;
22240;SDS011;11289;52.524;13.694;2023-07-30T14:12:03;5.93;;;1.60;;
22240;SDS011;11289;52.524;13.694;2023-07-30T14:14:30;6.25;;;1.48;;
22240;SDS011;11289;52.524;13.694;2023-07-30T14:16:56;3.10;;;1.85;;
22240;SDS011;11289;52.524;13.694;2023-07-30T14:19:22;3.50;;;1.50;;
22240;SDS011;11289;52.524;13.694;2023-07-30T14:21:48;4.90;;;2.20;;
22240;SDS011;11289;52.524;13.694;2023-07-30T14:24:14;4.78;;;2.05;;
22240;SDS011;11289;52.524;13.694;2023-07-30T14:26:40;3.17;;;1.80;;
22240;SDS011;11289;52.524;13.694;2023-07-30T14:29:06;5.28;;;1.60;;
22240;SDS011;11289;52.524;13.694;2023-07-30T14:31:32;9.48;;;5.65;;
22240;SDS011;11289;52.524;13.694;2023-07-30T14:33:58;4.10;;;2.28;;
22240;SDS011;11289;52.524;13.694;2023-07-30T14:36:24;4.57;;;2.13;;
22240;SDS011;11289;52.524;13.694;2023-07-30T14:38:50;6.05;;;1.40;;
22240;SDS011;11289;52.524;13.694;2023-07-30T14:41:16;3.13;;;1.30;;
22240;SDS011;11289;52.524;13.694;2023-07-30T14:43:43;4.25;;;1.40;;
22240;SDS011;11289;52.524;13.694;2023-07-30T14:46:09;3.08;;;1.20;;
22240;SDS011;11289;52.524;13.694;2023-07-30T14:48:41;2.88;;;1.20;;
22240;SDS011;11289;52.524;13.694;2023-07-30T14:51:09;2.58;;;1.20;;
22240;SDS011;11289;52.524;13.694;2023-07-30T14:53:35;3.58;;;0.95;;
22240;SDS011;11289;52.524;13.694;2023-07-30T14:56:01;4.68;;;1.48;;
22240;SDS011;11289;52.524;13.694;2023-07-30T14:58:28;4.07;;;1.25;;
22240;SDS011;11289;52.524;13.694;2023-07-30T15:00:54;4.22;;;1.23;;
22240;SDS011;11289;52.524;13.694;2023-07-30T15:03:20;3.75;;;1.30;;
22240;SDS011;11289;52.524;13.694;2023-07-30T15:05:46;2.50;;;1.05;;
22240;SDS011;11289;52.524;13.694;2023-07-30T15:08:11;3.70;;;1.00;;
22240;SDS011;11289;52.524;13.694;2023-07-30T15:10:37;2.95;;;1.30;;
22240;SDS011;11289;52.524;13.694;2023-07-30T15:13:03;4.28;;;1.20;;
22240;SDS011;11289;52.524;13.694;2023-07-30T15:15:29;4.13;;;1.33;;
22240;SDS011;11289;52.524;13.694;2023-07-30T15:17:55;3.70;;;1.45;;
22240;SDS011;11289;52.524;13.694;2023-07-30T15:20:21;6.40;;;1.58;;
22240;SDS011;11289;52.524;13.694;2023-07-30T15:22:47;3.67;;;1.30;;
22240;SDS011;11289;52.524;13.694;2023-07-30T15:25:13;3.55;;;1.15;;
22240;SDS011;11289;52.524;13.694;2023-07-30T15:27:39;3.17;;;1.38;;
22240;SDS011;11289;52.524;13.694;2023-07-30T15:30:05;6.43;;;1.80;;
22240;SDS011;11289;52.524;13.694;2023-07-30T15:32:32;9.07;;;5.13;;
22240;SDS011;11289;52.524;13.694;2023-07-30T15:35:06;4.00;;;1.70;;
22240;SDS011;11289;52.524;13.694;2023-07-30T15:37:32;2.95;;;1.60;;
22240;SDS011;11289;52.524;13.694;2023-07-30T15:39:58;5.18;;;1.60;;
22240;SDS011;11289;52.524;13.694;2023-07-30T15:42:24;2.38;;;1.50;;
22240;SDS011;11289;52.524;13.694;2023-07-30T15:44:51;4.20;;;1.80;;
22240;SDS011;11289;52.524;13.694;2023-07-30T15:47:16;3.10;;;1.50;;
22240;SDS011;11289;52.524;13.694;2023-07-30T15:49:43;3.78;;;1.80;;